sensor_id;sensor_type;location;lat;lon;timestamp;pressure;altitude;pressure_sealevel;temperature;humidity
48390;BME280;34643;47.964;7.982;2023-12-20T00:00:46;96859.19;;;17.19;61.31
48390;BME280;34643;47.964;7.982;2023-12-20T00:03:12;96854.69;;;17.21;61.29
48390;BME280;34643;47.964;7.982;2023-12-20T00:05:37;96862.50;;;17.21;61.11
48390;BME280;34643;47.964;7.982;2023-12-20T00:08:06;96868.47;;;17.23;61.16
48390;BME280;34643;47.964;7.982;2023-12-20T00:10:32;96867.72;;;17.21;61.40
48390;BME280;34643;47.964;7.982;2023-12-20T00:12:57;96865.25;;;17.20;61.55
48390;BME280;34643;47.964;7.982;2023-12-20T00:15:22;96865.00;;;17.23;60.87
48390;BME280;34643;47.964;7.982;2023-12-20T00:17:47;96858.84;;;17.24;60.99
48390;BME280;34643;47.964;7.982;2023-12-20T00:20:13;96845.09;;;17.22;61.04
48390;BME280;34643;47.964;7.982;2023-12-20T00:22:38;96840.72;;;17.22;61.02
48390;BME280;34643;47.964;7.982;2023-12-20T00:25:03;96838.94;;;17.23;60.70
48390;BME280;34643;47.964;7.982;2023-12-20T00:27:29;96838.09;;;17.22;60.76
48390;BME280;34643;47.964;7.982;2023-12-20T00:29:54;96842.59;;;17.20;60.98
48390;BME280;34643;47.964;7.982;2023-12-20T00:32:20;96850.44;;;17.20;61.18
48390;BME280;34643;47.964;7.982;2023-12-20T00:34:45;96845.31;;;17.19;61.20
48390;BME280;34643;47.964;7.982;2023-12-20T00:37:10;96845.41;;;17.17;61.48
48390;BME280;34643;47.964;7.982;2023-12-20T00:39:36;96845.31;;;17.19;61.30
48390;BME280;34643;47.964;7.982;2023-12-20T00:42:01;96850.44;;;17.20;61.48
48390;BME280;34643;47.964;7.982;2023-12-20T00:44:27;96847.72;;;17.22;61.20
48390;BME280;34643;47.964;7.982;2023-12-20T00:46:52;96852.06;;;17.21;61.06
48390;BME280;34643;47.964;7.982;2023-12-20T00:49:17;96834.66;;;17.22;60.94
48390;BME280;34643;47.964;7.982;2023-12-20T00:51:43;96826.13;;;17.20;61.13
48390;BME280;34643;47.964;7.982;2023-12-20T00:54:08;96834.78;;;17.20;61.51
48390;BME280;34643;47.964;7.982;2023-12-20T00:56:35;96825.28;;;17.19;61.17
48390;BME280;34643;47.964;7.982;2023-12-20T00:59:00;96830.38;;;17.21;61.24
48390;BME280;34643;47.964;7.982;2023-12-20T01:01:25;96832.88;;;17.22;61.14
48390;BME280;34643;47.964;7.982;2023-12-20T01:03:51;96826.72;;;17.23;61.12
48390;BME280;34643;47.964;7.982;2023-12-20T01:06:16;96826.13;;;17.20;61.33
48390;BME280;34643;47.964;7.982;2023-12-20T01:08:41;96826.94;;;17.20;61.19
48390;BME280;34643;47.964;7.982;2023-12-20T01:11:07;96830.50;;;17.19;61.24
48390;BME280;34643;47.964;7.982;2023-12-20T01:13:32;96830.50;;;17.19;61.13
48390;BME280;34643;47.964;7.982;2023-12-20T01:15:57;96835.59;;;17.21;60.88
48390;BME280;34643;47.964;7.982;2023-12-20T01:18:23;96844.25;;;17.21;60.77
48390;BME280;34643;47.964;7.982;2023-12-20T01:20:48;96843.41;;;17.21;60.81
48390;BME280;34643;47.964;7.982;2023-12-20T01:23:13;96828.72;;;17.20;61.08
48390;BME280;34643;47.964;7.982;2023-12-20T01:25:39;96836.56;;;17.20;61.08
48390;BME280;34643;47.964;7.982;2023-12-20T01:28:04;96840.91;;;17.19;60.98
48390;BME280;34643;47.964;7.982;2023-12-20T01:30:29;96840.00;;;17.20;61.11
48390;BME280;34643;47.964;7.982;2023-12-20T01:32:55;96840.09;;;17.19;61.21
48390;BME280;34643;47.964;7.982;2023-12-20T01:35:20;96841.88;;;17.18;61.32
48390;BME280;34643;47.964;7.982;2023-12-20T01:37:45;96843.53;;;17.19;60.95
48390;BME280;34643;47.964;7.982;2023-12-20T01:40:10;96842.81;;;17.17;61.02
48390;BME280;34643;47.964;7.982;2023-12-20T01:42:36;96844.50;;;17.18;61.17
48390;BME280;34643;47.964;7.982;2023-12-20T01:45:01;96850.63;;;17.17;61.16
48390;BME280;34643;47.964;7.982;2023-12-20T01:47:27;96853.25;;;17.17;61.17
48390;BME280;34643;47.964;7.982;2023-12-20T01:49:53;96853.25;;;17.17;61.19
48390;BME280;34643;47.964;7.982;2023-12-20T01:52:19;96855.97;;;17.16;61.27
48390;BME280;34643;47.964;7.982;2023-12-20T01:54:44;96868.06;;;17.17;61.09
48390;BME280;34643;47.964;7.982;2023-12-20T01:57:10;96864.63;;;17.16;61.21
48390;BME280;34643;47.964;7.982;2023-12-20T01:59:37;96862.13;;;17.15;61.29
48390;BME280;34643;47.964;7.982;2023-12-20T02:02:04;96863.78;;;17.16;61.21
48390;BME280;34643;47.964;7.982;2023-12-20T02:04:30;96866.28;;;17.17;61.21
48390;BME280;34643;47.964;7.982;2023-12-20T02:06:55;96855.13;;;17.15;61.31
48390;BME280;34643;47.964;7.982;2023-12-20T02:09:21;96857.75;;;17.15;61.00
48390;BME280;34643;47.964;7.982;2023-12-20T02:11:47;96855.13;;;17.15;61.05
48390;BME280;34643;47.964;7.982;2023-12-20T02:14:13;96850.84;;;17.14;61.13
48390;BME280;34643;47.964;7.982;2023-12-20T02:16:38;96852.31;;;17.18;60.72
48390;BME280;34643;47.964;7.982;2023-12-20T02:19:04;96854.22;;;17.16;60.90
48390;BME280;34643;47.964;7.982;2023-12-20T02:21:33;96849.91;;;17.15;60.80
48390;BME280;34643;47.964;7.982;2023-12-20T02:24:01;96851.59;;;17.16;60.75
48390;BME280;34643;47.964;7.982;2023-12-20T02:26:26;96841.16;;;17.16;60.91
48390;BME280;34643;47.964;7.982;2023-12-20T02:28:51;96847.31;;;17.15;60.67
48390;BME280;34643;47.964;7.982;2023-12-20T02:31:20;96843.78;;;17.16;60.84
48390;BME280;34643;47.964;7.982;2023-12-20T02:33:45;96838.56;;;17.16;60.72
48390;BME280;34643;47.964;7.982;2023-12-20T02:36:11;96840.09;;;17.19;60.57
48390;BME280;34643;47.964;7.982;2023-12-20T02:38:36;96837.50;;;17.19;60.84
48390;BME280;34643;47.964;7.982;2023-12-20T02:41:01;96835.00;;;17.17;60.61
48390;BME280;34643;47.964;7.982;2023-12-20T02:43:26;96836.06;;;17.15;61.13
48390;BME280;34643;47.964;7.982;2023-12-20T02:45:52;96837.72;;;17.16;61.15
48390;BME280;34643;47.964;7.982;2023-12-20T02:48:17;96843.03;;;17.14;61.11
48390;BME280;34643;47.964;7.982;2023-12-20T02:50:43;96844.50;;;17.18;60.86
48390;BME280;34643;47.964;7.982;2023-12-20T02:53:08;96835.00;;;17.17;61.10
48390;BME280;34643;47.964;7.982;2023-12-20T02:55:33;96841.88;;;17.18;60.64
48390;BME280;34643;47.964;7.982;2023-12-20T02:58:01;96838.41;;;17.18;60.98
48390;BME280;34643;47.964;7.982;2023-12-20T03:00:26;96832.38;;;17.17;60.88
48390;BME280;34643;47.964;7.982;2023-12-20T03:02:51;96836.66;;;17.18;61.00
48390;BME280;34643;47.964;7.982;2023-12-20T03:05:17;96841.16;;;17.16;61.02
48390;BME280;34643;47.964;7.982;2023-12-20T03:07:42;96846.38;;;17.16;61.16
48390;BME280;34643;47.964;7.982;2023-12-20T03:10:07;96851.59;;;17.16;61.02
48390;BME280;34643;47.964;7.982;2023-12-20T03:12:33;96847.31;;;17.15;61.09
48390;BME280;34643;47.964;7.982;2023-12-20T03:14:59;96857.53;;;17.18;60.83
48390;BME280;34643;47.964;7.982;2023-12-20T03:17:24;96851.25;;;17.21;60.71
48390;BME280;34643;47.964;7.982;2023-12-20T03:19:50;96854.81;;;17.20;60.69
48390;BME280;34643;47.964;7.982;2023-12-20T03:22:15;96859.19;;;17.19;60.68
48390;BME280;34643;47.964;7.982;2023-12-20T03:24:40;96852.22;;;17.20;60.82
48390;BME280;34643;47.964;7.982;2023-12-20T03:27:06;96864.41;;;17.19;60.82
48390;BME280;34643;47.964;7.982;2023-12-20T03:29:31;96862.75;;;17.18;60.76
48390;BME280;34643;47.964;7.982;2023-12-20T03:31:57;96868.78;;;17.19;60.91
48390;BME280;34643;47.964;7.982;2023-12-20T03:34:22;96872.22;;;17.19;60.89
48390;BME280;34643;47.964;7.982;2023-12-20T03:36:47;96880.03;;;17.19;60.62
48390;BME280;34643;47.964;7.982;2023-12-20T03:39:13;96871.41;;;17.19;60.67
48390;BME280;34643;47.964;7.982;2023-12-20T03:41:38;96874.81;;;17.19;60.53
48390;BME280;34643;47.964;7.982;2023-12-20T03:44:04;96876.72;;;17.17;60.68
48390;BME280;34643;47.964;7.982;2023-12-20T03:46:29;96882.16;;;17.14;60.85
48390;BME280;34643;47.964;7.982;2023-12-20T03:48:54;96883.81;;;17.15;60.90
48390;BME280;34643;47.964;7.982;2023-12-20T03:51:19;96882.16;;;17.14;60.93
48390;BME280;34643;47.964;7.982;2023-12-20T03:53:45;96887.16;;;17.17;61.02
48390;BME280;34643;47.964;7.982;2023-12-20T03:56:10;96887.16;;;17.17;61.08
48390;BME280;34643;47.964;7.982;2023-12-20T03:58:35;96891.56;;;17.17;60.93
48390;BME280;34643;47.964;7.982;2023-12-20T04:01:01;96887.38;;;17.14;61.03
48390;BME280;34643;47.964;7.982;2023-12-20T04:03:26;96896.16;;;17.13;61.13
48390;BME280;34643;47.964;7.982;2023-12-20T04:05:51;96892.38;;;17.17;60.79
48390;BME280;34643;47.964;7.982;2023-12-20T04:08:16;96892.38;;;17.17;60.80
48390;BME280;34643;47.964;7.982;2023-12-20T04:10:42;96890.72;;;17.16;60.78
48390;BME280;34643;47.964;7.982;2023-12-20T04:13:07;96888.84;;;17.18;60.76
48390;BME280;34643;47.964;7.982;2023-12-20T04:15:32;96890.72;;;17.16;60.68
48390;BME280;34643;47.964;7.982;2023-12-20T04:17:58;96893.34;;;17.16;61.09
48390;BME280;34643;47.964;7.982;2023-12-20T04:20:23;96890.47;;;17.19;60.91
48390;BME280;34643;47.964;7.982;2023-12-20T04:22:48;96889.56;;;17.20;60.79
48390;BME280;34643;47.964;7.982;2023-12-20T04:25:13;96884.13;;;17.23;60.41
48390;BME280;34643;47.964;7.982;2023-12-20T04:27:39;96881.50;;;17.23;60.58
48390;BME280;34643;47.964;7.982;2023-12-20T04:30:04;96883.38;;;17.21;60.43
48390;BME280;34643;47.964;7.982;2023-12-20T04:32:30;96880.66;;;17.23;60.58
48390;BME280;34643;47.964;7.982;2023-12-20T04:34:55;96900.69;;;17.22;60.49
48390;BME280;34643;47.964;7.982;2023-12-20T04:37:20;96908.53;;;17.22;60.48
48390;BME280;34643;47.964;7.982;2023-12-20T04:39:45;96910.06;;;17.25;60.37
48390;BME280;34643;47.964;7.982;2023-12-20T04:42:11;96913.53;;;17.25;60.34
48390;BME280;34643;47.964;7.982;2023-12-20T04:44:36;96921.25;;;17.27;60.50
48390;BME280;34643;47.964;7.982;2023-12-20T04:47:01;96923.00;;;17.26;60.37
48390;BME280;34643;47.964;7.982;2023-12-20T04:49:26;96927.09;;;17.31;60.27
48390;BME280;34643;47.964;7.982;2023-12-20T04:51:52;96922.78;;;17.29;60.49
48390;BME280;34643;47.964;7.982;2023-12-20T04:54:17;96929.69;;;17.31;60.27
48390;BME280;34643;47.964;7.982;2023-12-20T04:56:42;96928.72;;;17.32;60.47
48390;BME280;34643;47.964;7.982;2023-12-20T04:59:08;96925.19;;;17.33;60.47
48390;BME280;34643;47.964;7.982;2023-12-20T05:01:33;96919.88;;;17.34;60.19
48390;BME280;34643;47.964;7.982;2023-12-20T05:03:58;96920.69;;;17.35;60.49
48390;BME280;34643;47.964;7.982;2023-12-20T05:06:24;96912.97;;;17.33;60.27
48390;BME280;34643;47.964;7.982;2023-12-20T05:08:49;96914.66;;;17.34;60.24
48390;BME280;34643;47.964;7.982;2023-12-20T05:11:15;96916.19;;;17.37;60.43
48390;BME280;34643;47.964;7.982;2023-12-20T05:13:41;96919.53;;;17.39;60.32
48390;BME280;34643;47.964;7.982;2023-12-20T05:16:06;96929.75;;;17.42;60.62
48390;BME280;34643;47.964;7.982;2023-12-20T05:18:31;96936.19;;;17.49;60.64
48390;BME280;34643;47.964;7.982;2023-12-20T05:20:57;96924.97;;;17.60;60.71
48390;BME280;34643;47.964;7.982;2023-12-20T05:23:22;96925.78;;;17.60;60.78
48390;BME280;34643;47.964;7.982;2023-12-20T05:25:47;96926.69;;;17.48;61.10
48390;BME280;34643;47.964;7.982;2023-12-20T05:28:12;96931.41;;;17.43;60.99
48390;BME280;34643;47.964;7.982;2023-12-20T05:30:38;96928.91;;;17.41;61.18
48390;BME280;34643;47.964;7.982;2023-12-20T05:33:03;96932.56;;;17.39;61.10
48390;BME280;34643;47.964;7.982;2023-12-20T05:35:28;96931.63;;;17.40;60.92
48390;BME280;34643;47.964;7.982;2023-12-20T05:37:54;96935.06;;;17.40;61.00
48390;BME280;34643;47.964;7.982;2023-12-20T05:40:19;96949.69;;;17.43;60.83
48390;BME280;34643;47.964;7.982;2023-12-20T05:42:44;96948.00;;;17.42;60.73
48390;BME280;34643;47.964;7.982;2023-12-20T05:45:09;96958.38;;;16.29;54.87
48390;BME280;34643;47.964;7.982;2023-12-20T05:47:35;96960.72;;;15.25;54.38
48390;BME280;34643;47.964;7.982;2023-12-20T05:50:01;96953.06;;;14.37;53.32
48390;BME280;34643;47.964;7.982;2023-12-20T05:52:26;96955.03;;;14.03;52.74
48390;BME280;34643;47.964;7.982;2023-12-20T05:54:51;96938.06;;;13.52;54.13
48390;BME280;34643;47.964;7.982;2023-12-20T05:57:17;96950.09;;;14.72;53.86
48390;BME280;34643;47.964;7.982;2023-12-20T05:59:42;96953.09;;;15.64;55.57
48390;BME280;34643;47.964;7.982;2023-12-20T06:02:07;96951.66;;;16.12;55.27
48390;BME280;34643;47.964;7.982;2023-12-20T06:04:33;96960.53;;;16.35;54.62
48390;BME280;34643;47.964;7.982;2023-12-20T06:06:58;96963.28;;;16.47;54.60
48390;BME280;34643;47.964;7.982;2023-12-20T06:09:24;96963.69;;;16.53;54.60
48390;BME280;34643;47.964;7.982;2023-12-20T06:11:50;96972.84;;;16.59;54.92
48390;BME280;34643;47.964;7.982;2023-12-20T06:14:16;96974.41;;;16.62;55.07
48390;BME280;34643;47.964;7.982;2023-12-20T06:16:41;96979.44;;;16.65;55.27
48390;BME280;34643;47.964;7.982;2023-12-20T06:19:06;96987.16;;;16.66;55.49
48390;BME280;34643;47.964;7.982;2023-12-20T06:21:32;96981.94;;;16.66;55.30
48390;BME280;34643;47.964;7.982;2023-12-20T06:23:58;96975.66;;;16.69;55.54
48390;BME280;34643;47.964;7.982;2023-12-20T06:26:24;96976.59;;;16.68;55.94
48390;BME280;34643;47.964;7.982;2023-12-20T06:28:49;96985.28;;;16.68;56.05
48390;BME280;34643;47.964;7.982;2023-12-20T06:31:14;96984.31;;;16.69;56.02
48390;BME280;34643;47.964;7.982;2023-12-20T06:33:40;96983.50;;;16.69;56.22
48390;BME280;34643;47.964;7.982;2023-12-20T06:36:10;96986.09;;;16.69;56.41
48390;BME280;34643;47.964;7.982;2023-12-20T06:38:36;96989.63;;;16.68;56.20
48390;BME280;34643;47.964;7.982;2023-12-20T06:41:01;96980.88;;;16.69;56.46
48390;BME280;34643;47.964;7.982;2023-12-20T06:43:26;96986.91;;;16.69;56.59
48390;BME280;34643;47.964;7.982;2023-12-20T06:45:51;96986.09;;;16.69;56.57
48390;BME280;34643;47.964;7.982;2023-12-20T06:48:17;96996.53;;;16.69;56.67
48390;BME280;34643;47.964;7.982;2023-12-20T06:50:42;96998.31;;;16.68;56.84
48390;BME280;34643;47.964;7.982;2023-12-20T06:53:07;97003.50;;;16.68;56.76
48390;BME280;34643;47.964;7.982;2023-12-20T06:55:33;97000.06;;;16.68;56.85
48390;BME280;34643;47.964;7.982;2023-12-20T06:58:00;97005.25;;;16.68;56.97
48390;BME280;34643;47.964;7.982;2023-12-20T07:00:25;97008.81;;;16.67;57.19
48390;BME280;34643;47.964;7.982;2023-12-20T07:02:50;97009.75;;;16.66;57.08
48390;BME280;34643;47.964;7.982;2023-12-20T07:05:16;97017.56;;;16.66;57.21
48390;BME280;34643;47.964;7.982;2023-12-20T07:07:42;97022.78;;;16.66;57.24
48390;BME280;34643;47.964;7.982;2023-12-20T07:10:07;97026.25;;;16.66;56.82
48390;BME280;34643;47.964;7.982;2023-12-20T07:12:33;97031.56;;;16.65;57.21
48390;BME280;34643;47.964;7.982;2023-12-20T07:14:58;97029.78;;;16.65;57.33
48390;BME280;34643;47.964;7.982;2023-12-20T07:17:23;97025.38;;;16.66;57.29
48390;BME280;34643;47.964;7.982;2023-12-20T07:19:49;97039.47;;;16.63;57.37
48390;BME280;34643;47.964;7.982;2023-12-20T07:22:14;97037.78;;;16.62;57.22
48390;BME280;34643;47.964;7.982;2023-12-20T07:24:39;97044.69;;;16.63;57.57
48390;BME280;34643;47.964;7.982;2023-12-20T07:27:04;97052.59;;;16.62;57.40
48390;BME280;34643;47.964;7.982;2023-12-20T07:29:30;97048.31;;;16.61;57.23
48390;BME280;34643;47.964;7.982;2023-12-20T07:31:55;97050.91;;;16.61;57.63
48390;BME280;34643;47.964;7.982;2023-12-20T07:34:20;97060.53;;;16.60;57.44
48390;BME280;34643;47.964;7.982;2023-12-20T07:36:46;97068.53;;;16.57;57.55
48390;BME280;34643;47.964;7.982;2023-12-20T07:39:12;97064.28;;;16.56;57.59
48390;BME280;34643;47.964;7.982;2023-12-20T07:41:37;97068.63;;;16.56;57.68
48390;BME280;34643;47.964;7.982;2023-12-20T07:44:03;97066.03;;;16.56;57.56
48390;BME280;34643;47.964;7.982;2023-12-20T07:46:29;97063.41;;;16.56;57.62
48390;BME280;34643;47.964;7.982;2023-12-20T07:48:54;97073.03;;;16.55;57.63
48390;BME280;34643;47.964;7.982;2023-12-20T07:51:19;97072.19;;;16.54;57.88
48390;BME280;34643;47.964;7.982;2023-12-20T07:53:46;97063.66;;;16.52;57.83
48390;BME280;34643;47.964;7.982;2023-12-20T07:56:15;97074.16;;;16.51;57.76
48390;BME280;34643;47.964;7.982;2023-12-20T07:58:40;97077.59;;;16.51;57.86
48390;BME280;34643;47.964;7.982;2023-12-20T08:01:05;97083.75;;;16.50;57.68
48390;BME280;34643;47.964;7.982;2023-12-20T08:03:31;97082.91;;;16.50;57.83
48390;BME280;34643;47.964;7.982;2023-12-20T08:05:56;97083.88;;;16.49;57.92
48390;BME280;34643;47.964;7.982;2023-12-20T08:08:24;97083.00;;;16.48;57.71
48390;BME280;34643;47.964;7.982;2023-12-20T08:10:49;97075.31;;;16.47;57.68
48390;BME280;34643;47.964;7.982;2023-12-20T08:13:15;97076.97;;;16.48;57.77
48390;BME280;34643;47.964;7.982;2023-12-20T08:15:40;97077.06;;;16.46;57.87
48390;BME280;34643;47.964;7.982;2023-12-20T08:18:06;97089.25;;;16.46;57.74
48390;BME280;34643;47.964;7.982;2023-12-20T08:20:31;97094.47;;;16.46;57.91
48390;BME280;34643;47.964;7.982;2023-12-20T08:22:56;97104.06;;;16.45;57.87
48390;BME280;34643;47.964;7.982;2023-12-20T08:25:22;97095.53;;;16.43;57.92
48390;BME280;34643;47.964;7.982;2023-12-20T08:27:47;97091.13;;;16.44;57.81
48390;BME280;34643;47.964;7.982;2023-12-20T08:30:12;97094.75;;;16.41;57.96
48390;BME280;34643;47.964;7.982;2023-12-20T08:32:38;97097.47;;;16.40;58.12
48390;BME280;34643;47.964;7.982;2023-12-20T08:35:03;97104.47;;;16.39;57.98
48390;BME280;34643;47.964;7.982;2023-12-20T08:37:29;97103.53;;;16.40;57.99
48390;BME280;34643;47.964;7.982;2023-12-20T08:39:55;97104.47;;;16.39;57.77
48390;BME280;34643;47.964;7.982;2023-12-20T08:42:20;97098.50;;;16.37;57.95
48390;BME280;34643;47.964;7.982;2023-12-20T08:44:46;97105.41;;;16.38;57.96
48390;BME280;34643;47.964;7.982;2023-12-20T08:47:11;97105.50;;;16.37;58.06
48390;BME280;34643;47.964;7.982;2023-12-20T08:49:38;97112.59;;;16.34;57.82
48390;BME280;34643;47.964;7.982;2023-12-20T08:52:04;97114.25;;;16.35;58.03
48390;BME280;34643;47.964;7.982;2023-12-20T08:54:29;97110.91;;;16.33;57.91
48390;BME280;34643;47.964;7.982;2023-12-20T08:56:54;97113.50;;;16.33;58.14
48390;BME280;34643;47.964;7.982;2023-12-20T08:59:20;97116.22;;;16.32;58.08
48390;BME280;34643;47.964;7.982;2023-12-20T09:01:45;97118.81;;;16.32;57.88
48390;BME280;34643;47.964;7.982;2023-12-20T09:04:12;97120.59;;;16.31;58.11
48390;BME280;34643;47.964;7.982;2023-12-20T09:06:37;97118.81;;;16.32;57.94
48390;BME280;34643;47.964;7.982;2023-12-20T09:09:03;97118.91;;;16.30;57.89
48390;BME280;34643;47.964;7.982;2023-12-20T09:11:28;97118.00;;;16.31;58.00
48390;BME280;34643;47.964;7.982;2023-12-20T09:13:53;97119.88;;;16.29;58.06
48390;BME280;34643;47.964;7.982;2023-12-20T09:16:19;97129.44;;;16.29;57.90
48390;BME280;34643;47.964;7.982;2023-12-20T09:18:44;97132.03;;;16.29;58.01
48390;BME280;34643;47.964;7.982;2023-12-20T09:21:09;97137.38;;;16.27;58.14
48390;BME280;34643;47.964;7.982;2023-12-20T09:23:35;97133.91;;;16.27;57.99
48390;BME280;34643;47.964;7.982;2023-12-20T09:26:01;97141.72;;;16.27;58.19
48390;BME280;34643;47.964;7.982;2023-12-20T09:28:27;97146.94;;;16.27;57.89
48390;BME280;34643;47.964;7.982;2023-12-20T09:30:52;97147.03;;;16.25;57.96
48390;BME280;34643;47.964;7.982;2023-12-20T09:33:17;97151.31;;;16.26;57.92
48390;BME280;34643;47.964;7.982;2023-12-20T09:35:43;97154.75;;;16.27;58.04
48390;BME280;34643;47.964;7.982;2023-12-20T09:38:09;97150.47;;;16.26;57.91
48390;BME280;34643;47.964;7.982;2023-12-20T09:40:34;97157.44;;;16.25;57.89
48390;BME280;34643;47.964;7.982;2023-12-20T09:43:03;97154.75;;;16.27;58.04
48390;BME280;34643;47.964;7.982;2023-12-20T09:45:30;97150.66;;;16.23;57.87
48390;BME280;34643;47.964;7.982;2023-12-20T09:47:56;97148.06;;;16.23;57.93
48390;BME280;34643;47.964;7.982;2023-12-20T09:50:23;97148.97;;;16.22;58.04
48390;BME280;34643;47.964;7.982;2023-12-20T09:52:49;97154.19;;;16.22;58.16
48390;BME280;34643;47.964;7.982;2023-12-20T09:55:15;97154.19;;;16.22;58.04
48390;BME280;34643;47.964;7.982;2023-12-20T09:57:41;97148.97;;;16.22;57.98
48390;BME280;34643;47.964;7.982;2023-12-20T10:00:06;97148.97;;;16.22;58.12
48390;BME280;34643;47.964;7.982;2023-12-20T10:02:38;97136.91;;;16.21;58.09
48390;BME280;34643;47.964;7.982;2023-12-20T10:05:06;97135.22;;;16.20;57.89
48390;BME280;34643;47.964;7.982;2023-12-20T10:07:35;97147.34;;;16.21;57.91
48390;BME280;34643;47.964;7.982;2023-12-20T10:10:00;97145.66;;;16.20;57.92
48390;BME280;34643;47.964;7.982;2023-12-20T10:12:27;97144.81;;;16.19;58.18
48390;BME280;34643;47.964;7.982;2023-12-20T10:14:52;97144.81;;;16.19;58.13
48390;BME280;34643;47.964;7.982;2023-12-20T10:17:17;97142.31;;;16.18;58.01
48390;BME280;34643;47.964;7.982;2023-12-20T10:19:43;97137.09;;;16.18;58.02
48390;BME280;34643;47.964;7.982;2023-12-20T10:22:08;97139.78;;;16.16;58.04
48390;BME280;34643;47.964;7.982;2023-12-20T10:24:35;97143.22;;;16.16;58.01
48390;BME280;34643;47.964;7.982;2023-12-20T10:29:32;97146.88;;;16.14;58.02
48390;BME280;34643;47.964;7.982;2023-12-20T10:31:58;97143.34;;;16.15;57.99
48390;BME280;34643;47.964;7.982;2023-12-20T10:34:23;97135.63;;;16.13;58.08
48390;BME280;34643;47.964;7.982;2023-12-20T10:36:49;97133.03;;;16.13;58.22
48390;BME280;34643;47.964;7.982;2023-12-20T10:39:14;97133.13;;;16.12;57.97
48390;BME280;34643;47.964;7.982;2023-12-20T10:41:40;97139.16;;;16.12;58.03
48390;BME280;34643;47.964;7.982;2023-12-20T10:44:07;97139.16;;;16.12;58.11
48390;BME280;34643;47.964;7.982;2023-12-20T10:46:33;97131.44;;;16.11;58.04
48390;BME280;34643;47.964;7.982;2023-12-20T10:48:59;97123.63;;;16.11;58.30
48390;BME280;34643;47.964;7.982;2023-12-20T10:51:27;97125.41;;;16.10;58.22
48390;BME280;34643;47.964;7.982;2023-12-20T10:53:54;97121.13;;;16.09;58.08
48390;BME280;34643;47.964;7.982;2023-12-20T10:56:20;97128.94;;;16.09;58.05
48390;BME280;34643;47.964;7.982;2023-12-20T10:58:49;97132.47;;;16.08;58.05
48390;BME280;34643;47.964;7.982;2023-12-20T11:01:15;97128.09;;;16.09;58.00
48390;BME280;34643;47.964;7.982;2023-12-20T11:03:43;97134.34;;;16.06;58.10
48390;BME280;34643;47.964;7.982;2023-12-20T11:06:12;97126.53;;;16.06;58.13
48390;BME280;34643;47.964;7.982;2023-12-20T11:08:47;97129.97;;;16.07;58.09
48390;BME280;34643;47.964;7.982;2023-12-20T11:11:20;97127.38;;;16.07;58.10
48390;BME280;34643;47.964;7.982;2023-12-20T11:13:53;97124.03;;;16.05;58.18
48390;BME280;34643;47.964;7.982;2023-12-20T11:16:19;97129.97;;;16.07;58.07
48390;BME280;34643;47.964;7.982;2023-12-20T11:18:45;97128.41;;;16.04;58.00
48390;BME280;34643;47.964;7.982;2023-12-20T11:21:10;97129.16;;;16.06;58.06
48390;BME280;34643;47.964;7.982;2023-12-20T11:23:36;97126.53;;;16.06;58.08
48390;BME280;34643;47.964;7.982;2023-12-20T11:26:01;97124.84;;;16.05;58.04
48390;BME280;34643;47.964;7.982;2023-12-20T11:28:27;97124.03;;;16.05;57.99
48390;BME280;34643;47.964;7.982;2023-12-20T11:30:55;97124.84;;;16.05;58.03
48390;BME280;34643;47.964;7.982;2023-12-20T11:33:25;97123.09;;;16.06;58.00
48390;BME280;34643;47.964;7.982;2023-12-20T11:35:51;97127.47;;;16.05;58.03
48390;BME280;34643;47.964;7.982;2023-12-20T11:38:16;97121.44;;;16.05;57.90
48390;BME280;34643;47.964;7.982;2023-12-20T11:40:42;97119.75;;;16.04;58.14
48390;BME280;34643;47.964;7.982;2023-12-20T11:43:08;97118.00;;;16.04;58.03
48390;BME280;34643;47.964;7.982;2023-12-20T11:45:33;97115.41;;;16.04;58.06
48390;BME280;34643;47.964;7.982;2023-12-20T11:48:00;97119.75;;;16.04;57.94
48390;BME280;34643;47.964;7.982;2023-12-20T11:50:27;97123.22;;;16.04;58.00
48390;BME280;34643;47.964;7.982;2023-12-20T11:52:53;97111.84;;;16.05;58.11
48390;BME280;34643;47.964;7.982;2023-12-20T11:55:20;97109.13;;;16.07;58.04
48390;BME280;34643;47.964;7.982;2023-12-20T11:57:45;97105.41;;;16.11;57.79
48390;BME280;34643;47.964;7.982;2023-12-20T12:00:20;97106.91;;;16.15;57.89
48390;BME280;34643;47.964;7.982;2023-12-20T12:02:56;97097.84;;;16.21;57.61
48390;BME280;34643;47.964;7.982;2023-12-20T12:05:22;97102.75;;;16.25;57.55
48390;BME280;34643;47.964;7.982;2023-12-20T12:07:47;97101.72;;;16.28;57.75
48390;BME280;34643;47.964;7.982;2023-12-20T12:10:12;97096.31;;;16.31;57.47
48390;BME280;34643;47.964;7.982;2023-12-20T12:12:38;97094.44;;;16.33;57.69
48390;BME280;34643;47.964;7.982;2023-12-20T12:15:06;97092.56;;;16.35;57.68
48390;BME280;34643;47.964;7.982;2023-12-20T12:17:32;97088.91;;;16.38;57.60
48390;BME280;34643;47.964;7.982;2023-12-20T12:20:04;97092.38;;;16.38;57.84
48390;BME280;34643;47.964;7.982;2023-12-20T12:22:29;97093.13;;;16.40;57.54
48390;BME280;34643;47.964;7.982;2023-12-20T12:24:55;97101.75;;;16.41;57.83
48390;BME280;34643;47.964;7.982;2023-12-20T12:27:23;97099.06;;;16.42;57.76
48390;BME280;34643;47.964;7.982;2023-12-20T12:30:02;97099.88;;;16.43;57.88
48390;BME280;34643;47.964;7.982;2023-12-20T12:32:28;97096.44;;;16.42;57.69
48390;BME280;34643;47.964;7.982;2023-12-20T12:34:54;97092.91;;;16.43;57.92
48390;BME280;34643;47.964;7.982;2023-12-20T12:37:19;97097.28;;;16.43;57.89
48390;BME280;34643;47.964;7.982;2023-12-20T12:39:46;97099.78;;;16.44;57.91
48390;BME280;34643;47.964;7.982;2023-12-20T12:42:11;97091.88;;;16.46;57.75
48390;BME280;34643;47.964;7.982;2023-12-20T12:44:36;97093.56;;;16.47;57.91
48390;BME280;34643;47.964;7.982;2023-12-20T12:47:02;97091.88;;;16.46;57.91
48390;BME280;34643;47.964;7.982;2023-12-20T12:49:28;97102.19;;;16.47;57.89
48390;BME280;34643;47.964;7.982;2023-12-20T12:51:53;97109.19;;;16.47;57.84
48390;BME280;34643;47.964;7.982;2023-12-20T12:54:21;97101.25;;;16.48;57.97